createdAt,value
2023-05-01T00:03:45.020Z,19.30
2023-05-01T00:08:54.775Z,18.20
2023-05-01T00:14:02.370Z,23.20
2023-05-01T00:19:09.806Z,23.30
2023-05-01T00:24:17.901Z,17.90
2023-05-01T00:29:25.093Z,21.50
2023-05-01T00:39:37.971Z,17.50
2023-05-01T00:44:45.138Z,22.10
2023-05-01T00:54:59.257Z,23.20
2023-05-01T01:00:11.525Z,21.30
2023-05-01T01:05:20.415Z,23.20
2023-05-01T01:10:42.704Z,23.70
2023-05-01T01:15:58.517Z,21.80
2023-05-01T01:21:11.209Z,22.80
2023-05-01T01:26:34.597Z,22.30
2023-05-01T01:31:55.199Z,25.80
2023-05-01T01:37:06.288Z,24.50
2023-05-01T01:42:19.545Z,24.50
2023-05-01T01:47:32.900Z,25.00
2023-05-01T01:52:43.495Z,28.40
2023-05-01T01:57:52.388Z,29.00
2023-05-01T02:03:02.448Z,28.80
2023-05-01T02:08:13.337Z,21.70
2023-05-01T02:13:21.914Z,23.30
2023-05-01T02:18:30.217Z,20.00
2023-05-01T02:23:38.650Z,20.60
2023-05-01T02:28:46.016Z,20.90
2023-05-01T02:33:53.201Z,11.70
2023-05-01T02:39:00.899Z,21.40
2023-05-01T02:44:10.225Z,19.90
2023-05-01T02:49:20.113Z,25.60
2023-05-01T02:54:27.870Z,24.00
2023-05-01T02:59:35.482Z,23.90
2023-05-01T03:04:43.072Z,25.80
2023-05-01T03:09:50.576Z,27.70
2023-05-01T03:14:57.910Z,17.90
2023-05-01T03:20:06.689Z,25.60
2023-05-01T03:25:14.401Z,21.80
2023-05-01T03:30:21.779Z,19.30
2023-05-01T03:35:29.540Z,27.90
2023-05-01T03:40:36.912Z,20.80
2023-05-01T03:45:44.975Z,26.30
2023-05-01T03:50:52.988Z,15.20
2023-05-01T03:56:00.198Z,20.60
2023-05-01T04:01:07.578Z,24.30
2023-05-01T04:06:14.935Z,32.60
2023-05-01T04:16:28.372Z,23.30
2023-05-01T04:21:35.718Z,25.90
2023-05-01T04:31:50.663Z,18.00
2023-05-01T04:36:58.586Z,19.30
2023-05-01T04:42:06.398Z,24.90
2023-05-01T04:47:13.717Z,27.50
2023-05-01T04:52:21.124Z,20.60
2023-05-01T05:12:45.737Z,24.00
2023-05-01T05:17:55.182Z,21.60
2023-05-01T05:23:03.844Z,21.00
2023-05-01T05:28:13.465Z,20.80
2023-05-01T05:38:26.998Z,20.60
2023-05-01T05:43:35.337Z,21.10
2023-05-01T05:53:48.650Z,19.80
2023-05-01T05:58:55.910Z,17.60
2023-05-01T06:04:03.207Z,19.60
2023-05-01T06:09:11.382Z,15.80
2023-05-01T06:14:19.313Z,17.80
2023-05-01T06:19:27.768Z,18.80
2023-05-01T06:24:36.896Z,21.20
2023-05-01T06:29:44.453Z,19.50
2023-05-01T06:34:52.005Z,22.30
2023-05-01T06:39:59.869Z,23.60
2023-05-01T06:45:09.141Z,19.90
2023-05-01T06:50:16.479Z,19.10
2023-05-01T06:55:24.131Z,18.20
2023-05-01T07:00:31.428Z,13.80
2023-05-01T07:05:40.507Z,13.60
2023-05-01T07:10:47.837Z,13.10
2023-05-01T07:15:55.322Z,12.60
2023-05-01T07:21:02.657Z,13.70
2023-05-01T07:26:09.852Z,15.30
2023-05-01T07:31:17.141Z,11.60
2023-05-01T07:36:24.409Z,11.40
2023-05-01T07:41:34.197Z,10.70
2023-05-01T07:46:41.984Z,13.20
2023-05-01T07:51:49.827Z,10.70
2023-05-01T07:56:57.716Z,9.90
2023-05-01T08:02:04.878Z,10.60
2023-05-01T08:07:12.031Z,9.80
2023-05-01T08:17:02.793Z,9.80
2023-05-01T08:22:11.678Z,11.40
2023-05-01T08:27:19.438Z,12.60
2023-05-01T08:32:27.167Z,9.20
2023-05-01T08:37:34.926Z,10.60
2023-05-01T08:42:42.664Z,11.50
2023-05-01T08:47:51.530Z,10.30
2023-05-01T08:53:02.435Z,9.60
2023-05-01T08:58:14.857Z,10.30
2023-05-01T09:03:23.752Z,11.30
2023-05-01T09:08:31.766Z,14.30
2023-05-01T09:13:39.965Z,12.30
2023-05-01T09:18:48.132Z,10.20
2023-05-01T09:23:56.485Z,9.80
2023-05-01T09:29:04.176Z,12.40
2023-05-01T09:34:11.541Z,11.80
2023-05-01T09:39:25.768Z,10.90
2023-05-01T09:44:33.169Z,10.80
2023-05-01T09:54:42.709Z,10.10
2023-05-01T10:00:08.769Z,8.20
2023-05-01T10:05:17.211Z,10.70
2023-05-01T10:10:25.512Z,8.40
2023-05-01T10:15:40.651Z,8.90
2023-05-01T10:20:48.185Z,9.60
2023-05-01T10:25:55.938Z,10.20
2023-05-01T10:31:04.865Z,8.50
2023-05-01T10:36:18.854Z,9.60
2023-05-01T10:42:02.085Z,7.70
2023-05-01T10:47:44.180Z,8.40
2023-05-01T10:53:21.054Z,8.10
2023-05-01T10:58:59.105Z,9.90
2023-05-01T11:04:08.496Z,9.00
2023-05-01T11:09:44.236Z,6.40
2023-05-01T11:15:09.780Z,9.00
2023-05-01T11:20:50.251Z,8.70
2023-05-01T11:26:07.273Z,10.50
2023-05-01T11:31:20.164Z,9.40
2023-05-01T11:36:29.053Z,8.10
2023-05-01T11:41:36.507Z,8.10
2023-05-01T11:46:43.885Z,11.50
2023-05-01T11:51:59.344Z,8.40
2023-05-01T11:57:06.803Z,8.70
2023-05-01T12:02:23.334Z,9.80
2023-05-01T12:07:31.136Z,10.60
2023-05-01T12:12:38.791Z,8.30
2023-05-01T12:17:48.337Z,8.50
2023-05-01T12:22:56.956Z,9.50
2023-05-01T12:28:10.018Z,11.50
2023-05-01T12:33:19.181Z,10.40
2023-05-01T12:38:26.781Z,7.90
2023-05-01T12:43:36.295Z,8.20
2023-05-01T12:48:44.351Z,11.00
2023-05-01T12:53:57.354Z,12.50
2023-05-01T12:59:04.997Z,10.90
2023-05-01T13:04:12.687Z,11.20
2023-05-01T13:09:19.799Z,6.80
2023-05-01T13:14:27.897Z,9.90
2023-05-01T13:19:35.144Z,7.50
2023-05-01T13:24:47.003Z,8.90
2023-05-01T13:29:58.480Z,13.20
2023-05-01T13:35:06.781Z,11.10
2023-05-01T13:40:16.059Z,10.40
2023-05-01T13:45:26.019Z,13.60
2023-05-01T13:50:33.604Z,10.30
2023-05-01T13:55:43.405Z,7.40
2023-05-01T14:00:50.836Z,9.30
2023-05-01T14:05:58.096Z,9.10
2023-05-01T14:11:09.221Z,11.20
2023-05-01T14:16:26.150Z,9.90
2023-05-01T14:21:40.246Z,8.30
2023-05-01T14:26:50.434Z,8.70
2023-05-01T14:32:04.420Z,11.80
2023-05-01T14:37:11.999Z,8.10
2023-05-01T14:42:19.158Z,11.60
2023-05-01T14:47:28.238Z,9.30
2023-05-01T14:52:40.542Z,7.10
2023-05-01T14:58:03.876Z,9.30
2023-05-01T15:03:11.339Z,11.40
2023-05-01T15:08:18.531Z,8.60
2023-05-01T15:13:25.924Z,7.50
2023-05-01T15:18:34.699Z,9.00
2023-05-01T15:23:45.366Z,10.70
2023-05-01T15:28:52.555Z,7.70
2023-05-01T15:34:00.216Z,8.10
2023-05-01T15:39:12.023Z,8.60
2023-05-01T15:44:20.557Z,5.70
2023-05-01T15:49:27.627Z,9.80
2023-05-01T15:54:34.872Z,10.40
2023-05-01T15:59:43.371Z,11.00
2023-05-01T16:04:52.109Z,7.80
2023-05-01T16:10:01.157Z,11.20
2023-05-01T16:15:10.599Z,9.20
2023-05-01T16:20:17.751Z,13.40
2023-05-01T16:25:25.214Z,13.30
2023-05-01T16:30:32.428Z,11.80
2023-05-01T16:35:40.441Z,17.70
2023-05-01T16:40:48.879Z,12.60
2023-05-01T16:45:56.198Z,16.60
2023-05-01T16:51:05.612Z,14.30
2023-05-01T16:56:13.091Z,14.00
2023-05-01T17:01:20.510Z,14.00
2023-05-01T17:06:27.933Z,20.10
2023-05-01T17:11:35.168Z,13.80
2023-05-01T17:16:42.425Z,16.30
2023-05-01T17:21:50.005Z,11.80
2023-05-01T17:26:57.536Z,16.60
2023-05-01T17:32:05.149Z,12.70
2023-05-01T17:37:12.902Z,10.30
2023-05-01T17:42:20.206Z,12.10
2023-05-01T17:47:27.903Z,13.20
2023-05-01T17:52:35.427Z,12.10
2023-05-01T17:57:43.431Z,11.00
2023-05-01T18:02:50.609Z,10.00
2023-05-01T18:07:58.144Z,10.50
2023-05-01T18:13:05.551Z,11.90
2023-05-01T18:18:12.991Z,8.40
2023-05-01T18:23:20.788Z,11.20
2023-05-01T18:28:28.632Z,11.70
2023-05-01T18:33:35.894Z,14.40
2023-05-01T18:38:43.111Z,11.40
2023-05-01T18:43:54.240Z,13.20
2023-05-01T18:49:02.835Z,15.10
2023-05-01T18:54:10.357Z,13.20
2023-05-01T18:59:17.959Z,9.80
2023-05-01T19:04:25.720Z,15.30
2023-05-01T19:09:32.880Z,14.90
2023-05-01T19:14:39.971Z,13.40
2023-05-01T19:19:47.147Z,16.20
2023-05-01T19:24:54.448Z,14.30
2023-05-01T19:30:02.651Z,20.80
2023-05-01T19:35:11.754Z,21.30
2023-05-01T19:40:19.155Z,18.20
2023-05-01T19:45:26.873Z,19.10
2023-05-01T19:50:35.303Z,17.30
2023-05-01T19:55:42.685Z,19.90
2023-05-01T20:00:51.739Z,17.90
2023-05-01T20:05:59.225Z,18.90
2023-05-01T20:11:07.067Z,21.20
2023-05-01T20:16:14.825Z,21.10
2023-05-01T20:21:22.385Z,19.00
2023-05-01T20:26:31.781Z,20.90
2023-05-01T20:31:39.235Z,25.60
2023-05-01T20:36:46.583Z,26.00
2023-05-01T20:41:53.860Z,25.20
2023-05-01T20:47:01.049Z,23.30
2023-05-01T20:52:08.489Z,18.40
2023-05-01T20:57:17.782Z,25.20
2023-05-01T21:02:25.202Z,22.00
2023-05-01T21:07:37.093Z,21.20
2023-05-01T21:12:44.543Z,23.50
2023-05-01T21:17:52.227Z,21.00
2023-05-01T21:23:01.718Z,23.30
2023-05-01T21:28:12.081Z,23.40
2023-05-01T21:33:19.994Z,24.90
2023-05-01T21:38:29.907Z,18.90
2023-05-01T21:43:37.582Z,23.90
2023-05-01T21:48:45.488Z,26.20
2023-05-01T21:53:53.510Z,20.40
2023-05-01T21:59:06.034Z,20.50
2023-05-01T22:04:15.937Z,20.10
2023-05-01T22:09:23.300Z,19.50
2023-05-01T22:14:40.291Z,21.90
2023-05-01T22:19:54.809Z,18.90
2023-05-01T22:25:02.379Z,19.60
2023-05-01T22:30:11.635Z,21.90
2023-05-01T22:35:19.110Z,20.70
2023-05-01T22:40:26.790Z,23.30
2023-05-01T22:45:34.131Z,23.50
2023-05-01T22:50:41.869Z,29.10
2023-05-01T22:55:50.443Z,23.90
2023-05-01T23:00:57.567Z,29.20
2023-05-01T23:06:08.255Z,21.20
2023-05-01T23:11:21.446Z,27.70
2023-05-01T23:16:36.085Z,28.80
2023-05-01T23:21:43.454Z,25.30
2023-05-01T23:26:51.180Z,32.10
2023-05-01T23:31:58.732Z,30.40
2023-05-01T23:37:07.117Z,29.00
2023-05-01T23:42:14.631Z,32.70
2023-05-01T23:47:22.989Z,33.40
2023-05-01T23:52:30.234Z,36.80
2023-05-01T23:57:37.788Z,32.90
